createdAt,value
2023-03-24T00:01:44.317Z,7.50
2023-03-24T00:04:10.890Z,7.17
2023-03-24T00:06:37.781Z,6.90
2023-03-24T00:09:04.567Z,6.60
2023-03-24T00:11:34.829Z,5.70
2023-03-24T00:14:04.974Z,6.03
2023-03-24T00:16:34.837Z,5.47
2023-03-24T00:19:01.601Z,7.00
2023-03-24T00:21:28.166Z,6.30
2023-03-24T00:23:58.422Z,6.90
2023-03-24T00:26:25.849Z,6.70
2023-03-24T00:28:53.139Z,7.37
2023-03-24T00:31:19.873Z,6.97
2023-03-24T00:33:53.693Z,6.90
2023-03-24T00:36:23.390Z,7.10
2023-03-24T00:38:50.486Z,6.73
2023-03-24T00:41:20.162Z,7.13
2023-03-24T00:43:48.507Z,7.10
2023-03-24T00:46:27.582Z,7.23
2023-03-24T00:49:02.391Z,7.30
2023-03-24T00:51:40.170Z,6.83
2023-03-24T00:54:09.448Z,6.60
2023-03-24T00:56:40.874Z,6.90
2023-03-24T00:59:10.473Z,7.10
2023-03-24T01:01:39.198Z,7.70
2023-03-24T01:04:06.448Z,7.53
2023-03-24T01:06:36.635Z,6.70
2023-03-24T01:09:04.051Z,6.97
2023-03-24T01:11:35.874Z,5.77
2023-03-24T01:14:02.519Z,5.70
2023-03-24T01:16:29.092Z,6.23
2023-03-24T01:18:56.345Z,5.87
2023-03-24T01:21:25.554Z,5.53
2023-03-24T01:23:53.487Z,5.77
2023-03-24T01:26:19.994Z,4.77
2023-03-24T01:28:46.498Z,5.33
2023-03-24T01:31:13.101Z,5.10
2023-03-24T01:33:40.717Z,4.73
2023-03-24T01:36:08.101Z,5.87
2023-03-24T01:38:34.959Z,4.93
2023-03-24T01:41:02.166Z,5.70
2023-03-24T01:43:34.027Z,5.00
2023-03-24T01:46:05.309Z,5.70
2023-03-24T01:48:43.443Z,5.50
2023-03-24T01:51:18.701Z,4.83
2023-03-24T01:54:00.093Z,5.43
2023-03-24T01:56:28.058Z,4.97
2023-03-24T01:58:59.923Z,5.70
2023-03-24T02:01:30.010Z,5.43
2023-03-24T02:04:04.109Z,4.47
2023-03-24T02:06:33.228Z,4.60
2023-03-24T02:09:01.591Z,5.30
2023-03-24T02:11:31.740Z,5.80
2023-03-24T02:13:58.492Z,5.00
2023-03-24T02:16:49.453Z,4.87
2023-03-24T02:19:57.392Z,4.87
2023-03-24T02:22:52.157Z,5.33
2023-03-24T02:25:37.961Z,5.47
2023-03-24T02:28:04.467Z,4.80
2023-03-24T02:30:49.581Z,5.30
2023-03-24T02:33:57.469Z,5.97
2023-03-24T02:37:02.241Z,5.30
2023-03-24T02:39:44.188Z,6.00
2023-03-24T02:42:44.580Z,6.13
2023-03-24T02:45:45.448Z,5.60
2023-03-24T02:48:38.525Z,5.17
2023-03-24T02:51:25.550Z,5.30
2023-03-24T02:53:54.529Z,5.20
2023-03-24T02:56:23.174Z,5.30
2023-03-24T02:58:52.647Z,5.50
2023-03-24T03:01:31.223Z,4.73
2023-03-24T03:04:18.701Z,5.07
2023-03-24T03:06:53.448Z,5.63
2023-03-24T03:09:22.134Z,5.00
2023-03-24T03:11:51.718Z,5.20
2023-03-24T03:14:20.928Z,5.63
2023-03-24T03:17:00.224Z,4.80
2023-03-24T03:19:34.269Z,5.50
2023-03-24T03:22:02.931Z,4.93
2023-03-24T03:24:39.353Z,5.00
2023-03-24T03:27:14.853Z,5.40
2023-03-24T03:29:46.287Z,4.77
2023-03-24T03:32:19.911Z,5.27
2023-03-24T03:34:57.593Z,5.50
2023-03-24T03:37:33.061Z,4.97
2023-03-24T03:40:05.616Z,5.00
2023-03-24T03:42:32.615Z,4.50
2023-03-24T03:44:59.299Z,5.50
2023-03-24T03:47:26.006Z,4.80
2023-03-24T03:49:52.666Z,4.40
2023-03-24T03:52:19.393Z,4.77
2023-03-24T03:54:45.993Z,4.60
2023-03-24T03:57:13.853Z,4.80
2023-03-24T03:59:40.668Z,4.50
2023-03-24T04:02:13.191Z,4.83
2023-03-24T04:05:06.448Z,4.53
2023-03-24T04:07:39.692Z,4.57
2023-03-24T04:10:24.106Z,4.80
2023-03-24T04:13:08.848Z,4.80
2023-03-24T04:15:50.857Z,5.10
2023-03-24T04:18:40.603Z,4.40
2023-03-24T04:21:38.453Z,4.33
2023-03-24T04:24:29.713Z,4.67
2023-03-24T04:27:01.689Z,4.13
2023-03-24T04:29:53.147Z,4.83
2023-03-24T04:32:32.480Z,4.87
2023-03-24T04:35:02.882Z,5.60
2023-03-24T04:37:32.841Z,4.37
2023-03-24T04:40:01.793Z,5.13
2023-03-24T04:42:33.962Z,4.83
2023-03-24T04:45:01.356Z,4.53
2023-03-24T04:47:29.668Z,5.00
2023-03-24T04:50:04.804Z,5.37
2023-03-24T04:52:31.365Z,4.70
2023-03-24T04:54:58.064Z,4.87
2023-03-24T04:57:24.755Z,4.67
2023-03-24T04:59:52.618Z,4.93
2023-03-24T05:02:20.524Z,5.90
2023-03-24T05:04:48.238Z,5.50
2023-03-24T05:07:15.545Z,4.57
2023-03-24T05:09:42.369Z,4.80
2023-03-24T05:12:09.017Z,5.13
2023-03-24T05:14:35.676Z,4.87
2023-03-24T05:17:02.250Z,4.43
2023-03-24T05:19:28.881Z,4.57
2023-03-24T05:21:56.191Z,4.57
2023-03-24T05:24:22.957Z,4.90
2023-03-24T05:26:49.469Z,4.90
2023-03-24T05:29:16.201Z,4.30
2023-03-24T05:31:45.202Z,4.37
2023-03-24T05:34:11.886Z,4.30
2023-03-24T05:36:38.643Z,3.90
2023-03-24T05:39:05.084Z,6.50
2023-03-24T05:41:31.601Z,7.17
2023-03-24T05:43:58.192Z,6.37
2023-03-24T05:46:26.412Z,5.87
2023-03-24T05:48:53.271Z,5.93
2023-03-24T05:51:20.094Z,5.47
2023-03-24T05:53:46.745Z,5.00
2023-03-24T05:56:13.423Z,4.20
2023-03-24T05:58:39.899Z,4.43
2023-03-24T06:01:08.680Z,4.70
2023-03-24T06:03:39.000Z,5.27
2023-03-24T06:06:09.843Z,4.53
2023-03-24T06:08:38.328Z,4.87
2023-03-24T06:11:05.117Z,4.60
2023-03-24T06:13:32.649Z,4.30
2023-03-24T06:16:03.110Z,4.57
2023-03-24T06:18:30.661Z,4.30
2023-03-24T06:20:57.419Z,5.10
2023-03-24T06:23:26.005Z,4.83
2023-03-24T06:25:53.821Z,4.37
2023-03-24T06:28:20.941Z,5.50
2023-03-24T06:30:49.350Z,4.93
2023-03-24T06:33:16.344Z,5.60
2023-03-24T06:35:43.110Z,5.20
2023-03-24T06:38:10.305Z,5.20
2023-03-24T06:40:36.972Z,4.87
2023-03-24T06:43:03.478Z,5.70
2023-03-24T06:45:31.236Z,5.07
2023-03-24T06:47:58.037Z,4.80
2023-03-24T06:50:27.063Z,5.40
2023-03-24T06:52:54.028Z,5.23
2023-03-24T06:55:22.401Z,4.93
2023-03-24T06:57:49.324Z,4.57
2023-03-24T07:00:16.226Z,4.80
2023-03-24T07:02:43.088Z,4.70
2023-03-24T07:05:10.944Z,5.60
2023-03-24T07:08:16.707Z,4.80
2023-03-24T07:10:24.108Z,5.27
2023-03-24T07:12:51.175Z,4.40
2023-03-24T07:15:17.787Z,5.37
2023-03-24T07:17:44.555Z,4.97
2023-03-24T07:20:11.210Z,5.00
2023-03-24T07:22:37.929Z,5.47
2023-03-24T07:25:05.571Z,6.30
2023-03-24T07:27:35.134Z,5.40
2023-03-24T07:30:02.485Z,5.57
2023-03-24T07:32:35.113Z,5.77
2023-03-24T07:35:02.631Z,5.63
2023-03-24T07:37:29.173Z,5.17
2023-03-24T07:39:56.160Z,5.43
2023-03-24T07:42:22.633Z,6.07
2023-03-24T07:44:49.278Z,5.50
2023-03-24T07:47:15.740Z,5.73
2023-03-24T07:49:42.339Z,5.57
2023-03-24T07:52:08.851Z,5.67
2023-03-24T07:54:35.438Z,5.60
2023-03-24T07:57:02.487Z,5.30
2023-03-24T07:59:29.209Z,5.50
2023-03-24T08:01:58.423Z,5.67
2023-03-24T08:04:27.845Z,5.10
2023-03-24T08:06:55.024Z,5.23
2023-03-24T08:09:24.230Z,5.00
2023-03-24T08:11:51.421Z,5.30
2023-03-24T08:14:17.897Z,4.70
2023-03-24T08:16:46.442Z,5.20
2023-03-24T08:19:13.160Z,4.80
2023-03-24T08:21:39.685Z,5.50
2023-03-24T08:24:06.906Z,5.10
2023-03-24T08:26:35.435Z,5.90
2023-03-24T08:29:03.033Z,5.80
2023-03-24T08:31:36.996Z,5.47
2023-03-24T08:34:04.767Z,5.60
2023-03-24T08:36:31.968Z,5.33
2023-03-24T08:38:59.790Z,5.93
2023-03-24T08:41:30.849Z,5.23
2023-03-24T08:43:57.781Z,4.53
2023-03-24T08:46:24.241Z,5.07
2023-03-24T08:48:51.418Z,5.87
2023-03-24T08:51:18.016Z,5.13
2023-03-24T08:53:45.027Z,4.90
2023-03-24T08:56:11.959Z,5.27
2023-03-24T08:58:38.707Z,5.80
2023-03-24T09:01:05.555Z,6.80
2023-03-24T09:03:32.269Z,4.90
2023-03-24T09:05:58.954Z,5.73
2023-03-24T09:08:26.281Z,5.10
2023-03-24T09:10:53.024Z,5.47
2023-03-24T09:13:20.095Z,5.40
2023-03-24T09:15:52.377Z,5.20
2023-03-24T09:18:20.532Z,5.27
2023-03-24T09:20:47.922Z,5.63
2023-03-24T09:23:15.031Z,5.97
2023-03-24T09:25:41.727Z,4.87
2023-03-24T09:28:08.868Z,5.57
2023-03-24T09:30:35.641Z,5.77
2023-03-24T09:33:02.378Z,5.50
2023-03-24T09:35:29.449Z,4.67
2023-03-24T09:37:56.501Z,5.17
2023-03-24T09:40:31.748Z,4.50
2023-03-24T09:43:08.074Z,5.60
2023-03-24T09:45:37.991Z,5.53
2023-03-24T09:48:13.184Z,5.17
2023-03-24T09:50:44.432Z,5.90
2023-03-24T09:53:24.730Z,5.13
2023-03-24T09:55:51.430Z,5.00
2023-03-24T09:58:19.193Z,4.50
2023-03-24T10:00:46.231Z,4.97
2023-03-24T10:03:21.427Z,5.40
2023-03-24T10:05:57.360Z,5.27
2023-03-24T10:08:32.396Z,5.33
2023-03-24T10:11:06.979Z,5.53
2023-03-24T10:13:52.341Z,5.00
2023-03-24T10:16:46.314Z,5.67
2023-03-24T10:19:45.805Z,6.27
2023-03-24T10:22:39.948Z,6.97
2023-03-24T10:25:31.813Z,5.73
2023-03-24T10:28:27.276Z,6.00
2023-03-24T10:30:56.492Z,5.80
2023-03-24T10:33:23.058Z,5.80
2023-03-24T10:36:05.289Z,5.80
2023-03-24T10:38:32.943Z,6.77
2023-03-24T10:41:00.003Z,9.60
2023-03-24T10:43:28.064Z,7.10
2023-03-24T10:45:56.528Z,6.77
2023-03-24T10:48:46.723Z,6.20
2023-03-24T10:51:15.317Z,8.57
2023-03-24T10:53:44.774Z,6.47
2023-03-24T10:56:16.230Z,6.70
2023-03-24T10:58:43.747Z,5.50
2023-03-24T11:01:27.316Z,6.03
2023-03-24T11:04:00.814Z,6.50
2023-03-24T11:06:27.343Z,6.70
2023-03-24T11:09:29.840Z,6.07
2023-03-24T11:11:58.694Z,6.50
2023-03-24T11:14:27.928Z,7.97
2023-03-24T11:17:10.343Z,6.83
2023-03-24T11:19:36.886Z,6.90
2023-03-24T11:22:05.391Z,7.50
2023-03-24T11:24:36.411Z,7.43
2023-03-24T11:27:03.923Z,8.00
2023-03-24T11:29:33.262Z,7.50
2023-03-24T11:32:05.735Z,7.30
2023-03-24T11:34:38.055Z,7.23
2023-03-24T11:37:13.848Z,8.50
2023-03-24T11:39:40.628Z,7.73
2023-03-24T11:42:17.884Z,8.30
2023-03-24T11:44:49.947Z,6.70
2023-03-24T11:47:33.172Z,8.00
2023-03-24T11:50:12.171Z,7.60
2023-03-24T11:52:49.691Z,7.77
2023-03-24T11:55:18.639Z,7.10
2023-03-24T11:57:57.208Z,7.30
2023-03-24T12:00:29.629Z,7.50
2023-03-24T12:03:09.219Z,6.87
2023-03-24T12:05:51.320Z,7.90
2023-03-24T12:08:27.316Z,7.20
2023-03-24T12:11:19.394Z,8.00
2023-03-24T12:13:52.010Z,6.97
2023-03-24T12:16:32.009Z,6.77
2023-03-24T12:19:26.111Z,7.70
2023-03-24T12:21:58.576Z,7.63
2023-03-24T12:24:44.126Z,6.70
2023-03-24T12:27:49.294Z,6.70
2023-03-24T12:30:33.744Z,7.43
2023-03-24T12:33:24.992Z,8.30
2023-03-24T12:35:54.563Z,7.00
2023-03-24T12:38:34.657Z,7.00
2023-03-24T12:41:17.495Z,6.83
2023-03-24T12:44:06.695Z,6.30
2023-03-24T12:46:48.442Z,5.53
2023-03-24T12:49:25.338Z,6.70
2023-03-24T12:52:01.539Z,7.27
2023-03-24T12:55:04.224Z,6.10
2023-03-24T12:57:36.531Z,5.30
2023-03-24T13:00:13.205Z,6.03
2023-03-24T13:02:46.306Z,6.13
2023-03-24T13:05:21.103Z,6.10
2023-03-24T13:07:54.258Z,6.20
2023-03-24T13:10:27.297Z,5.80
2023-03-24T13:13:00.994Z,6.47
2023-03-24T13:15:56.394Z,6.93
2023-03-24T13:18:25.860Z,5.67
2023-03-24T13:21:07.959Z,5.90
2023-03-24T13:23:54.849Z,5.97
2023-03-24T13:26:24.640Z,6.33
2023-03-24T13:29:03.541Z,6.83
2023-03-24T13:31:41.599Z,6.00
2023-03-24T13:34:38.129Z,7.10
2023-03-24T13:37:38.299Z,5.60
2023-03-24T13:40:25.816Z,7.07
2023-03-24T13:43:00.526Z,7.20
2023-03-24T13:45:33.427Z,7.50
2023-03-24T13:48:17.754Z,5.90
2023-03-24T13:50:54.970Z,6.67
2023-03-24T13:53:39.047Z,5.97
2023-03-24T13:56:07.210Z,6.50
2023-03-24T13:58:59.468Z,6.40
2023-03-24T14:01:40.075Z,6.47
2023-03-24T14:04:23.730Z,6.47
2023-03-24T14:06:58.903Z,6.77
2023-03-24T14:09:28.265Z,6.73
2023-03-24T14:11:54.986Z,6.40
2023-03-24T14:14:22.624Z,6.93
2023-03-24T14:17:04.401Z,6.10
2023-03-24T14:19:42.040Z,6.17
2023-03-24T14:22:21.106Z,6.50
2023-03-24T14:24:59.066Z,6.77
2023-03-24T14:27:38.553Z,6.03
2023-03-24T14:30:30.783Z,6.70
2023-03-24T14:32:59.269Z,7.70
2023-03-24T14:35:39.894Z,7.00
2023-03-24T14:38:15.592Z,7.07
2023-03-24T14:40:44.872Z,7.90
2023-03-24T14:43:49.852Z,6.77
2023-03-24T14:46:23.072Z,7.20
2023-03-24T14:49:16.105Z,6.77
2023-03-24T14:51:50.934Z,7.30
2023-03-24T14:54:22.630Z,7.37
2023-03-24T14:56:53.181Z,7.60
2023-03-24T14:59:22.516Z,6.93
2023-03-24T15:01:50.243Z,7.23
2023-03-24T15:04:17.089Z,7.47
2023-03-24T15:06:48.216Z,6.83
2023-03-24T15:09:17.254Z,6.97
2023-03-24T15:11:45.614Z,6.93
2023-03-24T15:14:15.343Z,7.27
2023-03-24T15:16:42.075Z,7.57
2023-03-24T15:19:12.106Z,6.73
2023-03-24T15:21:41.233Z,9.10
2023-03-24T15:24:23.041Z,7.20
2023-03-24T15:26:53.624Z,6.67
2023-03-24T15:29:20.776Z,7.70
2023-03-24T15:31:47.423Z,7.63
2023-03-24T15:34:28.341Z,7.93
2023-03-24T15:36:59.599Z,7.60
2023-03-24T15:39:49.580Z,7.90
2023-03-24T15:42:19.336Z,8.13
2023-03-24T15:44:46.182Z,7.13
2023-03-24T15:47:32.596Z,7.07
2023-03-24T15:50:00.991Z,8.47
2023-03-24T15:52:31.559Z,8.47
2023-03-24T15:55:02.856Z,9.20
2023-03-24T15:57:38.591Z,7.97
2023-03-24T16:00:16.620Z,9.50
2023-03-24T16:02:48.447Z,11.30
2023-03-24T16:05:19.774Z,10.27
2023-03-24T16:08:04.546Z,9.07
2023-03-24T16:10:45.253Z,9.13
2023-03-24T16:13:16.991Z,9.17
2023-03-24T16:15:46.011Z,9.17
2023-03-24T16:18:17.699Z,10.00
2023-03-24T16:20:44.261Z,8.47
2023-03-24T16:23:12.883Z,6.50
2023-03-24T16:25:39.652Z,7.83
2023-03-24T16:28:07.466Z,9.07
2023-03-24T16:30:39.338Z,8.20
2023-03-24T16:33:07.201Z,10.13
2023-03-24T16:35:35.016Z,9.03
2023-03-24T16:38:01.695Z,9.50
2023-03-24T16:40:35.290Z,10.13
2023-03-24T16:43:02.320Z,9.27
2023-03-24T16:45:30.009Z,10.57
2023-03-24T16:47:57.265Z,8.80
2023-03-24T16:50:31.973Z,7.80
2023-03-24T16:52:58.787Z,9.70
2023-03-24T16:55:25.661Z,15.70
2023-03-24T16:57:52.335Z,11.63
2023-03-24T17:00:19.154Z,10.03
2023-03-24T17:02:48.419Z,13.80
2023-03-24T17:05:24.540Z,10.50
2023-03-24T17:07:51.912Z,11.13
2023-03-24T17:10:18.530Z,12.40
2023-03-24T17:12:45.802Z,10.70
2023-03-24T17:15:27.829Z,11.90
2023-03-24T17:17:54.995Z,9.90
2023-03-24T17:20:23.000Z,6.27
2023-03-24T17:22:52.378Z,3.00
2023-03-24T17:25:24.115Z,3.30
2023-03-24T17:27:51.270Z,2.70
2023-03-24T17:30:20.621Z,2.33
2023-03-24T17:32:47.514Z,3.20
2023-03-24T17:35:16.924Z,2.73
2023-03-24T17:37:43.457Z,2.67
2023-03-24T17:40:12.239Z,2.90
2023-03-24T17:42:40.538Z,3.77
2023-03-24T17:45:08.607Z,3.10
2023-03-24T17:47:35.618Z,3.50
2023-03-24T17:50:03.988Z,3.70
2023-03-24T17:52:30.572Z,2.40
2023-03-24T17:54:57.121Z,2.83
2023-03-24T17:57:23.765Z,2.13
2023-03-24T17:59:51.798Z,2.40
2023-03-24T18:02:18.969Z,2.83
2023-03-24T18:04:45.862Z,2.53
2023-03-24T18:07:12.452Z,3.30
2023-03-24T18:09:39.064Z,2.83
2023-03-24T18:12:05.909Z,3.07
2023-03-24T18:14:32.471Z,3.20
2023-03-24T18:16:59.103Z,2.53
2023-03-24T18:19:25.824Z,3.27
2023-03-24T18:21:52.501Z,3.53
2023-03-24T18:24:19.125Z,2.80
2023-03-24T18:26:45.983Z,2.77
2023-03-24T18:29:12.894Z,2.50
2023-03-24T18:31:39.504Z,2.80
2023-03-24T18:34:06.377Z,3.60
2023-03-24T18:36:32.898Z,3.87
2023-03-24T18:39:07.165Z,3.33
2023-03-24T18:41:37.436Z,3.33
2023-03-24T18:44:06.362Z,2.87
2023-03-24T18:46:33.533Z,2.60
2023-03-24T18:49:00.340Z,3.17
2023-03-24T18:51:27.328Z,5.03
2023-03-24T18:53:54.074Z,3.90
2023-03-24T18:56:22.124Z,7.40
2023-03-24T18:58:50.964Z,7.60
2023-03-24T19:01:22.708Z,6.40
2023-03-24T19:03:50.632Z,6.47
2023-03-24T19:06:17.528Z,9.80
2023-03-24T19:08:46.498Z,7.87
2023-03-24T19:11:14.413Z,5.10
2023-03-24T19:13:41.715Z,4.53
2023-03-24T19:16:10.565Z,4.10
2023-03-24T19:18:37.812Z,3.93
2023-03-24T19:21:06.846Z,4.43
2023-03-24T19:23:33.948Z,3.67
2023-03-24T19:26:01.654Z,3.17
2023-03-24T19:28:31.033Z,3.00
2023-03-24T19:30:59.413Z,2.63
2023-03-24T19:33:29.458Z,2.83
2023-03-24T19:35:56.040Z,2.70
2023-03-24T19:38:24.158Z,2.83
2023-03-24T19:40:54.104Z,2.80
2023-03-24T19:43:21.825Z,3.23
2023-03-24T19:45:49.998Z,2.87
2023-03-24T19:48:16.873Z,2.80
2023-03-24T19:50:49.167Z,2.53
2023-03-24T19:53:15.632Z,3.70
2023-03-24T19:55:42.211Z,2.43
2023-03-24T19:58:08.736Z,3.57
2023-03-24T20:00:35.301Z,2.87
2023-03-24T20:03:02.244Z,1.73
2023-03-24T20:05:29.027Z,2.50
2023-03-24T20:07:58.447Z,4.10
2023-03-24T20:10:26.723Z,2.30
2023-03-24T20:12:53.875Z,1.60
2023-03-24T20:15:20.500Z,2.10
2023-03-24T20:17:47.332Z,2.60
2023-03-24T20:20:13.987Z,3.20
2023-03-24T20:22:42.335Z,2.43
2023-03-24T20:25:10.394Z,2.30
2023-03-24T20:27:37.445Z,2.60
2023-03-24T20:30:08.175Z,2.10
2023-03-24T20:32:34.925Z,2.70
2023-03-24T20:35:01.514Z,2.57
2023-03-24T20:37:30.699Z,4.20
2023-03-24T20:39:57.433Z,3.43
2023-03-24T20:42:24.526Z,2.47
2023-03-24T20:44:51.199Z,2.97
2023-03-24T20:47:19.193Z,2.50
2023-03-24T20:49:45.975Z,2.67
2023-03-24T20:52:14.630Z,2.00
2023-03-24T20:54:41.642Z,2.80
2023-03-24T20:57:09.626Z,2.27
2023-03-24T20:59:37.764Z,2.97
2023-03-24T21:02:06.269Z,2.20
2023-03-24T21:04:33.763Z,2.80
2023-03-24T21:07:00.594Z,4.10
2023-03-24T21:09:27.764Z,5.93
2023-03-24T21:11:54.592Z,5.33
2023-03-24T21:14:21.120Z,4.50
2023-03-24T21:16:48.126Z,3.30
2023-03-24T21:19:14.729Z,2.43
2023-03-24T21:21:44.716Z,2.70
2023-03-24T21:24:13.283Z,2.33
2023-03-24T21:26:39.995Z,3.50
2023-03-24T21:29:10.478Z,2.30
2023-03-24T21:31:37.188Z,1.87
2023-03-24T21:34:03.842Z,2.40
2023-03-24T21:36:31.012Z,1.90
2023-03-24T21:38:58.222Z,1.97
2023-03-24T21:41:24.710Z,1.83
2023-03-24T21:43:54.551Z,1.73
2023-03-24T21:46:22.269Z,2.00
2023-03-24T21:48:55.545Z,2.37
2023-03-24T21:51:33.810Z,2.03
2023-03-24T21:54:03.900Z,1.87
2023-03-24T21:56:32.268Z,1.70
2023-03-24T21:58:58.996Z,1.50
2023-03-24T22:01:26.319Z,1.73
2023-03-24T22:03:54.799Z,1.77
2023-03-24T22:06:22.470Z,1.97
2023-03-24T22:08:48.986Z,2.30
2023-03-24T22:11:18.540Z,2.40
2023-03-24T22:13:46.217Z,2.50
2023-03-24T22:16:12.776Z,1.80
2023-03-24T22:18:39.569Z,2.17
2023-03-24T22:21:07.664Z,1.90
2023-03-24T22:23:38.110Z,2.37
2023-03-24T22:26:11.006Z,1.40
2023-03-24T22:28:38.014Z,3.03
2023-03-24T22:31:12.299Z,1.77
2023-03-24T22:33:39.083Z,2.13
2023-03-24T22:36:06.468Z,1.80
2023-03-24T22:38:34.502Z,1.93
2023-03-24T22:41:03.822Z,1.63
2023-03-24T22:43:30.962Z,1.50
2023-03-24T22:45:57.659Z,2.10
2023-03-24T22:48:24.240Z,2.60
2023-03-24T22:50:51.563Z,1.67
2023-03-24T22:53:18.191Z,1.73
2023-03-24T22:55:45.167Z,1.60
2023-03-24T22:58:13.394Z,1.80
2023-03-24T23:00:45.678Z,1.47
2023-03-24T23:03:12.739Z,1.63
2023-03-24T23:05:43.983Z,1.47
2023-03-24T23:08:11.773Z,1.93
2023-03-24T23:10:39.329Z,1.47
2023-03-24T23:13:06.094Z,1.73
2023-03-24T23:15:32.711Z,1.83
2023-03-24T23:17:59.925Z,1.30
2023-03-24T23:20:28.260Z,2.13
2023-03-24T23:22:55.970Z,2.20
2023-03-24T23:25:22.991Z,1.77
2023-03-24T23:27:49.882Z,1.63
2023-03-24T23:30:16.600Z,1.37
2023-03-24T23:32:44.711Z,2.03
2023-03-24T23:35:11.345Z,1.60
2023-03-24T23:37:39.670Z,2.03
2023-03-24T23:40:15.769Z,2.03
2023-03-24T23:42:45.494Z,1.67
2023-03-24T23:45:14.854Z,1.77
2023-03-24T23:47:47.076Z,1.50
2023-03-24T23:50:17.922Z,2.00
2023-03-24T23:52:44.782Z,2.17
2023-03-24T23:55:12.974Z,1.30
2023-03-24T23:57:40.680Z,1.60
